CheckWX is a tool to help pilots better visualize weather data.  It is not intended as a substitute for an official pre-flight weather briefing.

15:13:09 UTC

KRKR METAR
Robert S Kerr Airport
Poteau, Oklahoma, USA
Current

18 mins ago

KRKR 261455Z AUTO 00000KT 10SM CLR 26/20 A3010 RMK AO2
Observed
May-26 @ 14:55 UTC
Visibility
10 SM
Flight Rules
VFR
Cloud Levels
  • Clear skies
Temperature
26°C / 79°F
Dewpoint
20°C / 68°F
Humidity
70%
Altimeter
30.1" Hg
Pressure
1019.32 hPa
Previous

38 mins ago

KRKR 261435Z AUTO 00000KT 10SM CLR 26/20 A3010 RMK AO2
Observed
May-26 @ 14:35 UTC
Visibility
10 SM
Flight Rules
VFR
Cloud Levels
  • Clear skies
Temperature
26°C / 79°F
Dewpoint
20°C / 68°F
Humidity
70%
Altimeter
30.1" Hg
Pressure
1019.32 hPa
Previous

58 mins ago

KRKR 261415Z AUTO 00000KT 10SM CLR 25/20 A3010 RMK AO2
Observed
May-26 @ 14:15 UTC
Visibility
10 SM
Flight Rules
VFR
Cloud Levels
  • Clear skies
Temperature
25°C / 77°F
Dewpoint
20°C / 68°F
Humidity
74%
Altimeter
30.1" Hg
Pressure
1019.32 hPa